createdAt,value
2023-02-19T00:01:37.022Z,101315.03
2023-02-19T00:04:05.787Z,101310.41
2023-02-19T00:06:35.467Z,101317.50
2023-02-19T00:09:03.863Z,101309.38
2023-02-19T00:11:32.798Z,101306.88
2023-02-19T00:14:01.234Z,101303.31
2023-02-19T00:16:29.923Z,101307.91
2023-02-19T00:18:58.433Z,101306.88
2023-02-19T00:21:26.414Z,101298.72
2023-02-19T00:23:56.530Z,101307.69
2023-02-19T00:26:24.435Z,101302.25
2023-02-19T00:28:52.997Z,101297.66
2023-02-19T00:31:22.100Z,101298.72
2023-02-19T00:33:50.601Z,101289.09
2023-02-19T00:36:18.495Z,101286.19
2023-02-19T00:38:46.765Z,101289.75
2023-02-19T00:41:21.806Z,101282.44
2023-02-19T00:43:50.430Z,101278.88
2023-02-19T00:46:18.722Z,101285.34
2023-02-19T00:48:46.724Z,101283.47
2023-02-19T00:51:14.613Z,101285.34
2023-02-19T00:53:42.506Z,101288.91
2023-02-19T00:56:10.499Z,101278.88
2023-02-19T00:58:40.112Z,101281.59
2023-02-19T01:01:08.385Z,101284.31
2023-02-19T01:03:36.505Z,101281.59
2023-02-19T01:06:04.762Z,101283.47
2023-02-19T01:08:32.970Z,101277.22
2023-02-19T01:11:00.864Z,101279.09
2023-02-19T01:13:29.383Z,101276.38
2023-02-19T01:16:05.632Z,101273.66
2023-02-19T01:18:33.626Z,101271.13
2023-02-19T01:21:01.755Z,101273.22
2023-02-19T01:23:29.609Z,101265.69
2023-02-19T01:25:57.540Z,101278.44
2023-02-19T01:28:25.767Z,101270.28
2023-02-19T01:30:53.677Z,101268.41
2023-02-19T01:33:22.933Z,101271.13
2023-02-19T01:35:50.850Z,101275.72
2023-02-19T01:38:19.023Z,101270.28
2023-02-19T01:40:46.913Z,101274.88
2023-02-19T01:43:16.314Z,101269.44
2023-02-19T01:45:44.734Z,101279.47
2023-02-19T01:48:13.317Z,101268.59
2023-02-19T01:50:45.317Z,101275.94
2023-02-19T01:53:14.119Z,101242.03
2023-02-19T01:55:42.066Z,101267.56
2023-02-19T01:58:10.383Z,101267.56
2023-02-19T02:00:38.383Z,101259.44
2023-02-19T02:03:06.281Z,101272.16
2023-02-19T02:05:43.508Z,101274.88
2023-02-19T02:08:28.652Z,101266.97
2023-02-19T02:10:56.524Z,101271.53
2023-02-19T02:13:24.472Z,101268.00
2023-02-19T02:15:59.729Z,101276.97
2023-02-19T02:18:33.061Z,101275.94
2023-02-19T02:21:13.185Z,101278.44
2023-02-19T02:23:46.292Z,101277.59
2023-02-19T02:26:24.111Z,101267.78
2023-02-19T02:29:12.696Z,101124.75
2023-02-19T02:31:42.784Z,101270.69
2023-02-19T02:34:13.253Z,101270.69
2023-02-19T02:36:42.610Z,101256.47
2023-02-19T02:39:12.908Z,101265.28
2023-02-19T02:41:43.340Z,101265.28
2023-02-19T02:44:11.223Z,101265.28
2023-02-19T02:46:42.232Z,101265.28
2023-02-19T02:49:12.938Z,101262.56
2023-02-19T02:51:41.961Z,101259.84
2023-02-19T02:54:28.940Z,101258.16
2023-02-19T02:56:56.896Z,101267.34
2023-02-19T02:59:26.380Z,101262.75
2023-02-19T03:02:14.600Z,101265.47
2023-02-19T03:05:01.083Z,101271.75
2023-02-19T03:07:31.044Z,101272.56
2023-02-19T03:10:00.577Z,101283.44
2023-02-19T03:12:45.686Z,101284.09
2023-02-19T03:15:31.245Z,101285.13
2023-02-19T03:18:19.007Z,101283.63
2023-02-19T03:20:48.870Z,101286.34
2023-02-19T03:23:16.771Z,101281.34
2023-02-19T03:26:02.440Z,101301.78
2023-02-19T03:28:45.309Z,101296.38
2023-02-19T03:31:14.450Z,101289.06
2023-02-19T03:33:43.813Z,101300.75
2023-02-19T03:36:12.709Z,101299.91
2023-02-19T03:38:41.555Z,101299.06
2023-02-19T03:41:12.215Z,101305.56
2023-02-19T03:43:41.800Z,101303.66
2023-02-19T03:46:11.098Z,101311.63
2023-02-19T03:48:39.813Z,101296.97
2023-02-19T03:51:20.616Z,101312.47
2023-02-19T03:53:54.694Z,101318.06
2023-02-19T03:56:26.719Z,101279.13
2023-02-19T03:58:57.634Z,101320.78
2023-02-19T04:01:28.577Z,101329.78
2023-02-19T04:03:57.697Z,101320.59
2023-02-19T04:06:27.966Z,101290.44
2023-02-19T04:08:57.605Z,101334.19
2023-02-19T04:11:25.551Z,101335.22
2023-02-19T04:13:57.489Z,101337.91
2023-02-19T04:16:27.913Z,101338.75
2023-02-19T04:18:56.730Z,101340.84
2023-02-19T04:21:24.641Z,101340.22
2023-02-19T04:23:53.924Z,101345.44
2023-02-19T04:26:21.814Z,101356.50
2023-02-19T04:28:50.041Z,101358.38
2023-02-19T04:31:18.035Z,101358.19
2023-02-19T04:33:45.960Z,101353.78
2023-02-19T04:36:13.874Z,101362.56
2023-02-19T04:38:42.033Z,101358.19
2023-02-19T04:41:11.852Z,101364.63
2023-02-19T04:43:39.894Z,101373.44
2023-02-19T04:46:07.781Z,101372.59
2023-02-19T04:48:35.960Z,101381.56
2023-02-19T04:51:07.111Z,101383.44
2023-02-19T04:53:35.012Z,101387.81
2023-02-19T04:56:07.559Z,101389.50
2023-02-19T04:58:37.097Z,101385.94
2023-02-19T05:01:05.114Z,101389.50
2023-02-19T05:03:34.961Z,101390.34
2023-02-19T05:06:03.922Z,101388.66
2023-02-19T05:08:32.138Z,101392.22
2023-02-19T05:11:00.101Z,101393.91
2023-02-19T05:13:28.154Z,101396.63
2023-02-19T05:15:58.351Z,101403.28
2023-02-19T05:18:26.504Z,101406.63
2023-02-19T05:20:54.584Z,101405.59
2023-02-19T05:23:22.494Z,101408.50
2023-02-19T05:25:50.371Z,101413.94
2023-02-19T05:28:18.625Z,101422.06
2023-02-19T05:30:46.764Z,101423.94
2023-02-19T05:33:16.200Z,101425.81
2023-02-19T05:35:44.744Z,101431.91
2023-02-19T05:38:13.130Z,101435.47
2023-02-19T05:40:40.991Z,101441.06
2023-02-19T05:43:08.940Z,101446.50
2023-02-19T05:45:37.108Z,101451.75
2023-02-19T05:48:05.429Z,101454.47
2023-02-19T05:50:35.626Z,101447.34
2023-02-19T05:53:03.538Z,101450.91
2023-02-19T05:55:31.515Z,101452.59
2023-02-19T05:57:59.718Z,101454.47
2023-02-19T06:00:27.664Z,101459.91
2023-02-19T06:02:55.663Z,101458.88
2023-02-19T06:05:23.578Z,101465.97
2023-02-19T06:07:53.172Z,101464.47
2023-02-19T06:10:21.076Z,101461.56
2023-02-19T06:12:48.948Z,101462.41
2023-02-19T06:15:16.879Z,101477.88
2023-02-19T06:17:45.056Z,101466.16
2023-02-19T06:20:12.970Z,101483.47
2023-02-19T06:22:40.871Z,101479.75
2023-02-19T06:25:12.582Z,101479.94
2023-02-19T06:27:40.781Z,101487.03
2023-02-19T06:30:11.160Z,101484.31
2023-02-19T06:32:39.036Z,101488.91
2023-02-19T06:35:07.520Z,101490.59
2023-02-19T06:37:35.661Z,101495.00
2023-02-19T06:40:04.128Z,101497.91
2023-02-19T06:42:34.222Z,101496.03
2023-02-19T06:45:02.114Z,101495.38
2023-02-19T06:47:32.293Z,101505.00
2023-02-19T06:50:00.185Z,101510.44
2023-02-19T06:52:28.124Z,101503.16
2023-02-19T06:54:56.051Z,101514.84
2023-02-19T06:57:24.239Z,101510.44
2023-02-19T06:59:53.525Z,101518.59
2023-02-19T07:02:21.474Z,101525.72
2023-02-19T07:04:49.369Z,101530.28
2023-02-19T07:07:17.302Z,101541.16
2023-02-19T07:09:45.173Z,101544.91
2023-02-19T07:12:13.120Z,101545.75
2023-02-19T07:14:41.082Z,101551.16
2023-02-19T07:17:10.417Z,101563.72
2023-02-19T07:19:38.628Z,101564.53
2023-02-19T07:22:06.558Z,101557.22
2023-02-19T07:24:34.527Z,101558.28
2023-02-19T07:27:02.410Z,101557.63
2023-02-19T07:29:30.576Z,101569.16
2023-02-19T07:31:58.516Z,101577.47
2023-02-19T07:34:28.153Z,101580.19
2023-02-19T07:36:56.012Z,101588.16
2023-02-19T07:39:24.183Z,101595.22
2023-02-19T07:41:52.096Z,101598.16
2023-02-19T07:44:20.176Z,101598.75
2023-02-19T07:46:48.105Z,101608.19
2023-02-19T07:49:16.341Z,101608.38
2023-02-19T07:51:45.657Z,101608.19
2023-02-19T07:54:14.956Z,101618.00
2023-02-19T07:56:42.966Z,101614.47
2023-02-19T07:59:11.706Z,101620.72
2023-02-19T08:01:56.820Z,101630.09
2023-02-19T08:04:24.737Z,101635.34
2023-02-19T08:06:53.996Z,101637.22
2023-02-19T08:09:22.233Z,101635.69
2023-02-19T08:12:07.335Z,101640.53
2023-02-19T08:14:35.210Z,101645.16
2023-02-19T08:17:03.866Z,101651.41
2023-02-19T08:19:32.034Z,101651.41
2023-02-19T08:22:02.113Z,101652.25
2023-02-19T08:24:31.138Z,101653.31
2023-02-19T08:26:59.034Z,101656.03
2023-02-19T08:29:27.492Z,101666.03
2023-02-19T08:31:55.414Z,101671.25
2023-02-19T08:34:23.406Z,101678.38
2023-02-19T08:36:51.397Z,101677.75
2023-02-19T08:39:21.341Z,101678.56
2023-02-19T08:41:49.253Z,101685.03
2023-02-19T08:44:17.178Z,101676.91
2023-02-19T08:46:45.037Z,101679.63
2023-02-19T08:49:13.207Z,101672.69
2023-02-19T08:51:41.153Z,101668.75
2023-02-19T08:54:09.079Z,101674.38
2023-02-19T08:56:38.355Z,101688.59
2023-02-19T08:59:06.874Z,101685.91
2023-02-19T09:01:34.835Z,101687.56
2023-02-19T09:04:02.780Z,101689.41
2023-02-19T09:06:30.746Z,101697.38
2023-02-19T09:08:58.878Z,101685.69
2023-02-19T09:11:26.777Z,101688.59
2023-02-19T09:13:56.707Z,101689.22
2023-02-19T09:16:24.615Z,101696.53
2023-02-19T09:18:52.814Z,101693.81
2023-02-19T09:21:20.688Z,101702.63
2023-02-19T09:23:48.597Z,101701.13
2023-02-19T09:26:16.451Z,101712.84
2023-02-19T09:28:44.665Z,101716.38
2023-02-19T09:31:15.251Z,101715.53
2023-02-19T09:33:44.441Z,101724.53
2023-02-19T09:36:12.336Z,101725.56
2023-02-19T09:38:40.637Z,101725.56
2023-02-19T09:41:10.767Z,101735.41
2023-02-19T09:43:38.877Z,101726.41
2023-02-19T09:46:10.909Z,101738.28
2023-02-19T09:48:40.518Z,101743.72
2023-02-19T09:51:08.691Z,101744.78
2023-02-19T09:53:41.114Z,101733.06
2023-02-19T09:56:09.024Z,101734.75
2023-02-19T09:58:37.813Z,101740.19
2023-02-19T10:01:07.885Z,101740.38
2023-02-19T10:03:41.285Z,101742.06
2023-02-19T10:06:15.689Z,101747.50
2023-02-19T10:08:44.327Z,101748.53
2023-02-19T10:11:13.343Z,101757.50
2023-02-19T10:13:43.449Z,101767.34
2023-02-19T10:16:15.700Z,101777.38
2023-02-19T10:18:44.947Z,101783.63
2023-02-19T10:21:17.205Z,101791.78
2023-02-19T10:23:45.133Z,101803.66
2023-02-19T10:26:13.062Z,101814.53
2023-02-19T10:28:41.244Z,101810.97
2023-02-19T10:31:18.787Z,101806.38
2023-02-19T10:33:51.844Z,101809.09
2023-02-19T10:36:28.698Z,101815.38
2023-02-19T10:38:58.759Z,101821.66
2023-02-19T10:41:29.837Z,101819.69
2023-02-19T10:44:01.294Z,101824.16
2023-02-19T10:46:32.380Z,101834.16
2023-02-19T10:49:02.222Z,101837.44
2023-02-19T10:51:36.960Z,101845.88
2023-02-19T10:54:12.943Z,101839.41
2023-02-19T10:56:42.425Z,101844.84
2023-02-19T10:59:24.426Z,101841.28
2023-02-19T11:01:56.275Z,101848.81
2023-02-19T11:04:24.392Z,101843.16
2023-02-19T11:06:53.988Z,101844.00
2023-02-19T11:09:26.467Z,101844.41
2023-02-19T11:11:54.747Z,101857.41
2023-02-19T11:14:24.664Z,101814.91
2023-02-19T11:16:55.051Z,101836.25
2023-02-19T11:19:28.360Z,101850.09
2023-02-19T11:21:58.001Z,101850.94
2023-02-19T11:24:29.512Z,101851.13
2023-02-19T11:26:58.004Z,101853.84
2023-02-19T11:29:28.651Z,101854.69
2023-02-19T11:31:57.002Z,101859.28
2023-02-19T11:34:29.869Z,101863.69
2023-02-19T11:37:13.568Z,101858.25
2023-02-19T11:39:42.441Z,101717.72
2023-02-19T11:42:21.004Z,101851.69
2023-02-19T11:45:08.106Z,101838.56
2023-02-19T11:47:45.183Z,101832.50
2023-02-19T11:50:17.989Z,101843.81
2023-02-19T11:53:12.166Z,101842.97
2023-02-19T11:55:48.106Z,101790.47
2023-02-19T11:58:54.345Z,101839.59
2023-02-19T12:01:25.310Z,101841.97
2023-02-19T12:04:11.706Z,101835.50
2023-02-19T12:06:47.518Z,101803.13
2023-02-19T12:09:57.292Z,101807.97
2023-02-19T12:13:14.559Z,101806.28
2023-02-19T12:16:44.878Z,101824.69
2023-02-19T12:20:10.633Z,101823.31
2023-02-19T12:22:40.163Z,101834.09
2023-02-19T12:25:23.753Z,101837.00
2023-02-19T12:28:04.320Z,101836.34
2023-02-19T12:31:11.046Z,101842.63
2023-02-19T12:34:33.042Z,101849.72
2023-02-19T12:47:33.532Z,101836.16
2023-02-19T12:57:26.402Z,101841.31
2023-02-19T13:00:03.587Z,101862.75
2023-02-19T13:02:36.874Z,101860.19
2023-02-19T13:05:11.505Z,101862.25
2023-02-19T13:07:42.165Z,101868.94
2023-02-19T13:10:29.929Z,101856.50
2023-02-19T13:13:09.198Z,101829.09
2023-02-19T13:15:45.386Z,101874.44
2023-02-19T13:18:15.676Z,101858.16
2023-02-19T13:20:54.570Z,101862.94
2023-02-19T13:23:45.157Z,101860.22
2023-02-19T13:26:23.735Z,101862.50
2023-02-19T13:29:17.541Z,101853.50
2023-02-19T13:31:56.847Z,101854.69
2023-02-19T13:34:30.928Z,101856.25
2023-02-19T13:36:58.856Z,101873.00
2023-02-19T13:39:30.552Z,101869.66
2023-02-19T13:42:00.326Z,101884.09
2023-02-19T13:44:30.028Z,101886.81
2023-02-19T13:47:00.629Z,101898.50
2023-02-19T13:49:43.138Z,101892.25
2023-02-19T13:52:37.262Z,101899.53
2023-02-19T13:55:44.136Z,101887.16
2023-02-19T13:59:01.551Z,101899.09
2023-02-19T14:02:11.713Z,101898.41
2023-02-19T14:04:52.684Z,101892.31
2023-02-19T14:07:41.547Z,101909.66
2023-02-19T14:10:12.876Z,101913.19
2023-02-19T14:12:40.893Z,101921.34
2023-02-19T14:15:44.109Z,101919.69
2023-02-19T14:18:52.887Z,101925.94
2023-02-19T14:21:35.408Z,101928.47
2023-02-19T14:24:03.282Z,101930.34
2023-02-19T14:26:32.825Z,101932.19
2023-02-19T14:29:02.076Z,101937.47
2023-02-19T14:31:32.018Z,101941.00
2023-02-19T14:34:04.472Z,101940.56
2023-02-19T14:36:44.026Z,101957.50
2023-02-19T14:39:16.094Z,101948.22
2023-02-19T14:41:46.979Z,101955.63
2023-02-19T14:44:20.803Z,101947.00
2023-02-19T14:46:55.063Z,101957.50
2023-02-19T14:49:26.687Z,101947.00
2023-02-19T14:51:59.344Z,101941.19
2023-02-19T14:54:37.118Z,101950.56
2023-02-19T14:57:06.258Z,101952.06
2023-02-19T14:59:34.315Z,101950.19
2023-02-19T15:02:05.712Z,101958.34
2023-02-19T15:04:36.976Z,101959.34
2023-02-19T15:07:09.872Z,101960.41
2023-02-19T15:09:38.920Z,101956.00
2023-02-19T15:12:09.719Z,101948.88
2023-02-19T15:14:38.768Z,101942.59
2023-02-19T15:17:08.432Z,101935.13
2023-02-19T15:19:41.874Z,101936.81
2023-02-19T15:22:27.629Z,101926.78
2023-02-19T15:28:22.454Z,101913.84
2023-02-19T15:30:50.377Z,101917.44
2023-02-19T15:33:19.387Z,101917.03
2023-02-19T15:35:49.504Z,101919.97
2023-02-19T15:38:17.425Z,101912.00
2023-02-19T15:40:45.855Z,101903.84
2023-02-19T15:43:24.696Z,101836.22
2023-02-19T15:45:54.351Z,101899.25
2023-02-19T15:48:24.015Z,101890.09
2023-02-19T15:50:53.245Z,101884.16
2023-02-19T15:53:22.612Z,101894.47
2023-02-19T15:55:55.024Z,101894.47
2023-02-19T15:58:24.671Z,101895.31
2023-02-19T16:00:55.112Z,101903.47
2023-02-19T16:03:23.842Z,101898.03
2023-02-19T16:06:02.510Z,101895.88
2023-02-19T16:08:31.089Z,101903.28
2023-02-19T16:10:59.667Z,101914.16
2023-02-19T16:13:28.045Z,101917.03
2023-02-19T16:16:03.462Z,101909.84
2023-02-19T16:18:31.451Z,101915.38
2023-02-19T16:20:59.306Z,101925.19
2023-02-19T16:23:27.408Z,101924.53
2023-02-19T16:25:59.872Z,101932.69
2023-02-19T16:28:28.478Z,101889.69
2023-02-19T16:30:57.440Z,101940.00
2023-02-19T16:33:41.065Z,101940.84
2023-02-19T16:36:23.345Z,101945.44
2023-02-19T16:39:24.887Z,101943.72
2023-02-19T16:42:20.561Z,101953.75
2023-02-19T16:44:48.706Z,101944.97
2023-02-19T16:47:44.873Z,101963.13
2023-02-19T16:50:15.914Z,101953.84
2023-02-19T16:52:53.559Z,101970.03
2023-02-19T16:55:21.768Z,101971.91
2023-02-19T16:57:49.686Z,101977.34
2023-02-19T17:00:19.132Z,101974.84
2023-02-19T17:02:47.894Z,101992.78
2023-02-19T17:05:17.533Z,101995.50
2023-02-19T17:07:45.412Z,102009.94
2023-02-19T17:10:14.522Z,102012.66
2023-02-19T17:12:42.497Z,102025.38
2023-02-19T17:15:10.623Z,102025.59
2023-02-19T17:17:38.624Z,102034.09
2023-02-19T17:20:14.901Z,102035.38
2023-02-19T17:22:44.319Z,102045.22
2023-02-19T17:25:12.491Z,102048.16
2023-02-19T17:27:41.229Z,102059.19
2023-02-19T17:30:12.930Z,102055.63
2023-02-19T17:32:40.886Z,102054.78
2023-02-19T17:35:09.264Z,102058.34
2023-02-19T17:37:37.190Z,102061.06
2023-02-19T17:40:10.600Z,102060.22
2023-02-19T17:42:38.486Z,102066.50
2023-02-19T17:45:09.763Z,102054.31
2023-02-19T17:47:37.666Z,102058.53
2023-02-19T17:50:06.941Z,102067.50
2023-02-19T17:52:34.874Z,102069.38
2023-02-19T17:55:02.776Z,102071.44
2023-02-19T17:57:33.800Z,102077.53
2023-02-19T18:00:01.702Z,102077.69
2023-02-19T18:02:29.624Z,102086.53
2023-02-19T18:04:57.512Z,102086.34
2023-02-19T18:07:25.447Z,102087.53
2023-02-19T18:09:53.364Z,102085.66
2023-02-19T18:12:21.245Z,102085.03
2023-02-19T18:14:50.550Z,102077.69
2023-02-19T18:17:18.513Z,102086.69
2023-02-19T18:19:46.395Z,102083.97
2023-02-19T18:22:14.319Z,102087.75
2023-02-19T18:24:46.648Z,102086.03
2023-02-19T18:27:14.554Z,102093.19
2023-02-19T18:29:42.428Z,102097.56
2023-02-19T18:32:11.834Z,102085.03
2023-02-19T18:34:40.003Z,102094.84
2023-02-19T18:37:07.911Z,102094.84
2023-02-19T18:39:35.809Z,102094.00
2023-02-19T18:42:03.718Z,102083.13
2023-02-19T18:44:32.079Z,102098.41
2023-02-19T18:47:01.609Z,102104.84
2023-02-19T18:49:32.298Z,102102.97
2023-02-19T18:52:08.335Z,102108.25
2023-02-19T18:54:39.723Z,102115.19
2023-02-19T18:57:08.752Z,102120.63
2023-02-19T18:59:36.685Z,102114.34
2023-02-19T19:02:07.704Z,102114.16
2023-02-19T19:04:37.582Z,102118.75
2023-02-19T19:07:05.829Z,102122.28
2023-02-19T19:09:33.738Z,102121.66
2023-02-19T19:12:01.733Z,102123.50
2023-02-19T19:14:29.693Z,102120.97
2023-02-19T19:16:57.594Z,102125.84
2023-02-19T19:19:25.558Z,102122.50
2023-02-19T19:21:54.864Z,102129.28
2023-02-19T19:24:23.504Z,102141.50
2023-02-19T19:26:51.700Z,102133.53
2023-02-19T19:29:20.414Z,102137.94
2023-02-19T19:31:48.457Z,102137.94
2023-02-19T19:34:16.811Z,102149.81
2023-02-19T19:36:44.737Z,102158.34
2023-02-19T19:39:14.036Z,102161.72
2023-02-19T19:41:41.979Z,102157.13
2023-02-19T19:44:09.998Z,102148.13
2023-02-19T19:46:44.061Z,102148.13
2023-02-19T19:49:11.996Z,102141.00
2023-02-19T19:51:39.871Z,102135.41
2023-02-19T19:54:08.443Z,102126.41
2023-02-19T19:56:42.364Z,102132.69
2023-02-19T19:59:11.218Z,102137.25
2023-02-19T20:01:39.198Z,102145.59
2023-02-19T20:04:07.138Z,102150.66
2023-02-19T20:06:35.067Z,102144.56
2023-02-19T20:09:02.953Z,102145.41
2023-02-19T20:11:30.869Z,102159.66
2023-02-19T20:14:00.188Z,102164.25
2023-02-19T20:16:28.728Z,102178.84
2023-02-19T20:18:56.684Z,102160.69
2023-02-19T20:21:25.700Z,102167.13
2023-02-19T20:23:53.586Z,102163.56
2023-02-19T20:26:25.608Z,102164.59
2023-02-19T20:28:53.599Z,102159.38
2023-02-19T20:31:23.187Z,102175.66
2023-02-19T20:33:51.763Z,102177.34
2023-02-19T20:36:20.180Z,102180.88
2023-02-19T20:38:48.608Z,102170.03
2023-02-19T20:41:16.527Z,102165.44
2023-02-19T20:43:44.732Z,102157.97
2023-02-19T20:46:12.902Z,102165.28
2023-02-19T20:48:42.513Z,102173.41
2023-02-19T20:51:10.436Z,102169.00
2023-02-19T20:53:39.361Z,102178.84
2023-02-19T20:56:07.737Z,102182.56
2023-02-19T20:58:35.611Z,102187.16
2023-02-19T21:01:03.537Z,102189.03
2023-02-19T21:03:31.517Z,102199.06
2023-02-19T21:06:00.845Z,102202.81
2023-02-19T21:08:28.769Z,102207.22
2023-02-19T21:10:57.001Z,102206.38
2023-02-19T21:13:24.888Z,102205.03
2023-02-19T21:15:52.789Z,102200.09
2023-02-19T21:18:20.718Z,102195.13
2023-02-19T21:20:48.575Z,102202.44
2023-02-19T21:23:17.991Z,102193.44
2023-02-19T21:25:45.960Z,102197.19
2023-02-19T21:28:13.957Z,102204.31
2023-02-19T21:30:42.347Z,102202.44
2023-02-19T21:33:10.600Z,102202.44
2023-02-19T21:35:38.549Z,102197.84
2023-02-19T21:38:06.411Z,102198.88
2023-02-19T21:40:35.806Z,102201.41
2023-02-19T21:43:03.778Z,102204.13
2023-02-19T21:45:31.754Z,102210.41
2023-02-19T21:47:59.715Z,102204.97
2023-02-19T21:50:27.610Z,102207.53
2023-02-19T21:52:55.585Z,102218.19
2023-02-19T21:55:23.819Z,102220.91
2023-02-19T21:57:53.909Z,102216.16
2023-02-19T22:00:22.380Z,102195.63
2023-02-19T22:02:50.378Z,102199.69
2023-02-19T22:05:18.617Z,102203.25
2023-02-19T22:07:47.680Z,102193.19
2023-02-19T22:10:16.749Z,102182.88
2023-02-19T22:12:44.634Z,102193.19
2023-02-19T22:15:15.157Z,102195.09
2023-02-19T22:17:43.063Z,102199.69
2023-02-19T22:20:11.552Z,102201.34
2023-02-19T22:22:39.425Z,102209.50
2023-02-19T22:25:08.129Z,102208.00
2023-02-19T22:27:36.003Z,102205.13
2023-02-19T22:30:03.987Z,102216.84
2023-02-19T22:32:33.600Z,102206.97
2023-02-19T22:35:01.856Z,102206.97
2023-02-19T22:37:30.525Z,102210.72
2023-02-19T22:39:58.483Z,102211.75
2023-02-19T22:42:26.383Z,102206.13
2023-02-19T22:44:54.543Z,102197.81
2023-02-19T22:47:22.523Z,102192.56
2023-02-19T22:49:51.878Z,102201.34
2023-02-19T22:52:19.771Z,102203.06
2023-02-19T22:54:47.768Z,102186.97
2023-02-19T22:57:15.749Z,102199.47
2023-02-19T22:59:43.633Z,102203.25
2023-02-19T23:02:11.623Z,102206.13
2023-02-19T23:04:39.811Z,102208.84
2023-02-19T23:07:09.094Z,102211.56
2023-02-19T23:09:37.287Z,102202.56
2023-02-19T23:12:06.584Z,102198.00
2023-02-19T23:14:34.825Z,102200.88
2023-02-19T23:17:02.768Z,102198.84
2023-02-19T23:19:30.685Z,102190.88
2023-02-19T23:21:58.815Z,102199.84
2023-02-19T23:24:28.404Z,102186.28
2023-02-19T23:26:56.340Z,102178.31
2023-02-19T23:29:25.431Z,102184.59
2023-02-19T23:31:54.799Z,102179.16
2023-02-19T23:34:23.020Z,102179.16
2023-02-19T23:36:51.027Z,102184.59
2023-02-19T23:39:20.122Z,102179.16
2023-02-19T23:41:49.759Z,102180.84
2023-02-19T23:44:18.066Z,102178.31
2023-02-19T23:46:46.023Z,102168.28
2023-02-19T23:49:13.970Z,102180.00
2023-02-19T23:51:41.973Z,102170.16
2023-02-19T23:54:10.398Z,102165.56
2023-02-19T23:56:38.364Z,102164.72
2023-02-19T23:59:08.034Z,102168.47
